JZA7800 CYUL-CYDF
Flight info
| Callsign | JZA7800 |
|---|---|
| Flight time | 1h 52m |
| Altitude | 37000 |
| Route | SUXET DCT NOVUN DCT ESRAM DCT RABIK Q951 ANTOV DCT CROIX DCT OVIXI DCT USBAM DCT FROSS DCT YDF |
| Aircraft | CRJ9/M-SDFGIRWY/S |
Departure
| Time | 2026-04-26 07:13 |
|---|---|
| Airport | Montreal / Pierre Elliott Trudeau International Airport (CYUL) |
Arrival
| Time | 2026-04-26 09:06 |
|---|---|
| Airport | Deer Lake Airport (CYDF) |
| Time | Latitude | Longitude | Altitude | Speed | Heading |
|---|---|---|---|---|---|
| 2026-04-26 06:07 | 45.45934 | -73.75137 | 109 ft | 0 kts | 180° |
| 2026-04-26 06:40 | 45.45959 | -73.75139 | 109 ft | 4 kts | 173° |
| 2026-04-26 06:40 | 45.45985 | -73.75148 | 110 ft | 4 kts | 155° |
| 2026-04-26 06:40 | 45.46003 | -73.75170 | 109 ft | 4 kts | 112° |
| 2026-04-26 06:41 | 45.46004 | -73.75185 | 110 ft | 1 kts | 86° |
| 2026-04-26 07:01 | 45.46004 | -73.75180 | 111 ft | 2 kts | 86° |
| 2026-04-26 07:01 | 45.46004 | -73.75178 | 111 ft | 0 kts | 86° |
| 2026-04-26 07:03 | 45.46005 | -73.75172 | 111 ft | 1 kts | 86° |
| 2026-04-26 07:03 | 45.46005 | -73.75169 | 111 ft | 1 kts | 86° |
| 2026-04-26 07:04 | 45.46007 | -73.75130 | 112 ft | 7 kts | 86° |
| 2026-04-26 07:04 | 45.46009 | -73.75070 | 113 ft | 5 kts | 91° |
| 2026-04-26 07:04 | 45.46008 | -73.75058 | 113 ft | 0 kts | 94° |
| 2026-04-26 07:05 | 45.46005 | -73.75030 | 113 ft | 4 kts | 100° |
| 2026-04-26 07:05 | 45.45998 | -73.74996 | 113 ft | 4 kts | 110° |
| 2026-04-26 07:05 | 45.45988 | -73.74953 | 112 ft | 5 kts | 103° |
| 2026-04-26 07:05 | 45.45987 | -73.74931 | 112 ft | 0 kts | 88° |
| 2026-04-26 07:08 | 45.45987 | -73.74928 | 112 ft | 1 kts | 88° |
| 2026-04-26 07:08 | 45.45987 | -73.74923 | 112 ft | 1 kts | 88° |
| 2026-04-26 07:08 | 45.45988 | -73.74866 | 112 ft | 8 kts | 88° |
| 2026-04-26 07:08 | 45.45979 | -73.74776 | 110 ft | 10 kts | 114° |
| 2026-04-26 07:09 | 45.45951 | -73.74684 | 113 ft | 9 kts | 101° |
| 2026-04-26 07:09 | 45.45959 | -73.74594 | 114 ft | 9 kts | 72° |
| 2026-04-26 07:09 | 45.45982 | -73.74500 | 116 ft | 11 kts | 70° |
| 2026-04-26 07:09 | 45.45997 | -73.74395 | 114 ft | 11 kts | 103° |
| 2026-04-26 07:10 | 45.45915 | -73.74155 | 112 ft | 7 kts | 133° |
| 2026-04-26 07:11 | 45.45910 | -73.74146 | 113 ft | 0 kts | 132° |
| 2026-04-26 07:11 | 45.45904 | -73.74138 | 113 ft | 4 kts | 132° |
| 2026-04-26 07:11 | 45.45869 | -73.74080 | 112 ft | 10 kts | 121° |
| 2026-04-26 07:12 | 45.45867 | -73.74008 | 112 ft | 1 kts | 54° |
| 2026-04-26 07:12 | 45.45868 | -73.74007 | 110 ft | 0 kts | 46° |
| 2026-04-26 07:12 | 45.45892 | -73.73974 | 111 ft | 21 kts | 43° |
| 2026-04-26 07:12 | 45.46189 | -73.73586 | 114 ft | 95 kts | 42° |
| 2026-04-26 07:13 | 45.46839 | -73.72740 | 114 ft | 155 kts | 42° |
| 2026-04-26 07:13 | 45.47712 | -73.71594 | 490 ft | 173 kts | 43° |
| 2026-04-26 07:13 | 45.48638 | -73.70308 | 1023 ft | 205 kts | 44° |
| 2026-04-26 07:13 | 45.49581 | -73.68573 | 1336 ft | 244 kts | 67° |
| 2026-04-26 07:14 | 45.49689 | -73.65954 | 1342 ft | 293 kts | 103° |
| 2026-04-26 07:14 | 45.48625 | -73.63285 | 1563 ft | 331 kts | 132° |
| 2026-04-26 07:14 | 45.46607 | -73.61444 | 1864 ft | 366 kts | 158° |
| 2026-04-26 07:14 | 45.44072 | -73.60302 | 2227 ft | 394 kts | 159° |
| 2026-04-26 07:15 | 45.41592 | -73.58786 | 3640 ft | 390 kts | 153° |
| 2026-04-26 07:15 | 45.39265 | -73.56768 | 4732 ft | 394 kts | 143° |
| 2026-04-26 07:15 | 45.37208 | -73.54159 | 5752 ft | 399 kts | 132° |
| 2026-04-26 07:15 | 45.35482 | -73.51019 | 6646 ft | 406 kts | 123° |
| 2026-04-26 07:16 | 45.33976 | -73.47593 | 7496 ft | 412 kts | 120° |
| 2026-04-26 07:16 | 45.32507 | -73.44056 | 8296 ft | 418 kts | 120° |
| 2026-04-26 07:16 | 45.31037 | -73.40553 | 8380 ft | 408 kts | 120° |
| 2026-04-26 07:16 | 45.29575 | -73.37141 | 8370 ft | 400 kts | 121° |
| 2026-04-26 07:17 | 45.28151 | -73.33850 | 8356 ft | 393 kts | 121° |
| 2026-04-26 07:17 | 45.26701 | -73.30573 | 8715 ft | 385 kts | 121° |
| 2026-04-26 07:17 | 45.25277 | -73.27355 | 9096 ft | 385 kts | 121° |
| 2026-04-26 07:17 | 45.23843 | -73.24146 | 9480 ft | 386 kts | 122° |
| 2026-04-26 07:18 | 45.22408 | -73.20983 | 9878 ft | 386 kts | 122° |
| 2026-04-26 07:18 | 45.21225 | -73.17594 | 10226 ft | 385 kts | 104° |
| 2026-04-26 07:18 | 45.20793 | -73.13858 | 10603 ft | 384 kts | 96° |
| 2026-04-26 07:18 | 45.20563 | -73.10102 | 11160 ft | 384 kts | 91° |
| 2026-04-26 07:19 | 45.20612 | -73.06242 | 11802 ft | 389 kts | 86° |
| 2026-04-26 07:19 | 45.20796 | -73.02449 | 12435 ft | 393 kts | 82° |
| 2026-04-26 07:19 | 45.21554 | -72.98717 | 13083 ft | 396 kts | 68° |
| 2026-04-26 07:19 | 45.22616 | -72.95093 | 13775 ft | 400 kts | 65° |
| 2026-04-26 07:20 | 45.23894 | -72.91572 | 14396 ft | 403 kts | 60° |
| 2026-04-26 07:20 | 45.25314 | -72.88139 | 15007 ft | 405 kts | 59° |
| 2026-04-26 07:20 | 45.26757 | -72.84687 | 15634 ft | 407 kts | 59° |
| 2026-04-26 07:20 | 45.28169 | -72.81194 | 16257 ft | 409 kts | 64° |
| 2026-04-26 07:21 | 45.28977 | -72.77317 | 16896 ft | 411 kts | 78° |
| 2026-04-26 07:21 | 45.29467 | -72.73323 | 17572 ft | 411 kts | 82° |
| 2026-04-26 07:21 | 45.29716 | -72.69280 | 18233 ft | 411 kts | 86° |
| 2026-04-26 07:21 | 45.29815 | -72.65221 | 18852 ft | 411 kts | 88° |
| 2026-04-26 07:22 | 45.29916 | -72.61167 | 19448 ft | 410 kts | 87° |
| 2026-04-26 07:22 | 45.30064 | -72.57130 | 20048 ft | 409 kts | 85° |
| 2026-04-26 07:22 | 45.30283 | -72.53109 | 20667 ft | 408 kts | 84° |
| 2026-04-26 07:22 | 45.30515 | -72.49104 | 21292 ft | 406 kts | 85° |
| 2026-04-26 07:23 | 45.30735 | -72.45113 | 21932 ft | 404 kts | 85° |
| 2026-04-26 07:23 | 45.30953 | -72.41150 | 22582 ft | 401 kts | 85° |
| 2026-04-26 07:23 | 45.31165 | -72.37213 | 23247 ft | 398 kts | 85° |
| 2026-04-26 07:23 | 45.31376 | -72.33305 | 23883 ft | 394 kts | 85° |
| 2026-04-26 07:24 | 45.31583 | -72.29441 | 24449 ft | 390 kts | 85° |
| 2026-04-26 07:24 | 45.31785 | -72.25620 | 25030 ft | 385 kts | 85° |
| 2026-04-26 07:24 | 45.31986 | -72.21853 | 25618 ft | 381 kts | 85° |
| 2026-04-26 07:24 | 45.32181 | -72.18123 | 26219 ft | 376 kts | 85° |
| 2026-04-26 07:25 | 45.32379 | -72.14450 | 26856 ft | 368 kts | 85° |
| 2026-04-26 07:25 | 45.32582 | -72.10861 | 27440 ft | 366 kts | 85° |
| 2026-04-26 07:25 | 45.32791 | -72.07193 | 27397 ft | 379 kts | 85° |
| 2026-04-26 07:25 | 45.32996 | -72.03394 | 27406 ft | 391 kts | 85° |
| 2026-04-26 07:26 | 45.33194 | -71.99478 | 27430 ft | 403 kts | 85° |
| 2026-04-26 07:26 | 45.33391 | -71.95456 | 27468 ft | 413 kts | 85° |
| 2026-04-26 07:26 | 45.33593 | -71.91328 | 27508 ft | 424 kts | 85° |
| 2026-04-26 07:26 | 45.33803 | -71.87129 | 27741 ft | 428 kts | 85° |
| 2026-04-26 07:27 | 45.34120 | -71.82914 | 28045 ft | 430 kts | 82° |
| 2026-04-26 07:27 | 45.34594 | -71.78713 | 28352 ft | 432 kts | 79° |
| 2026-04-26 07:27 | 45.35110 | -71.74554 | 28644 ft | 434 kts | 79° |
| 2026-04-26 07:27 | 45.35626 | -71.70317 | 28934 ft | 436 kts | 80° |
| 2026-04-26 07:28 | 45.36107 | -71.65987 | 29227 ft | 438 kts | 81° |
| 2026-04-26 07:28 | 45.36568 | -71.61753 | 29501 ft | 440 kts | 81° |
| 2026-04-26 07:28 | 45.37035 | -71.57440 | 29769 ft | 442 kts | 81° |
| 2026-04-26 07:28 | 45.37501 | -71.53106 | 30033 ft | 444 kts | 81° |
| 2026-04-26 07:29 | 45.37974 | -71.48693 | 30273 ft | 446 kts | 81° |
| 2026-04-26 07:29 | 45.38440 | -71.44314 | 30451 ft | 449 kts | 81° |
| 2026-04-26 07:29 | 45.38900 | -71.39975 | 30676 ft | 450 kts | 81° |
| 2026-04-26 07:29 | 45.39367 | -71.35562 | 30893 ft | 452 kts | 81° |
| 2026-04-26 07:30 | 45.39832 | -71.31140 | 31108 ft | 453 kts | 81° |
| 2026-04-26 07:30 | 45.40295 | -71.26705 | 31311 ft | 454 kts | 81° |
| 2026-04-26 07:30 | 45.40759 | -71.22254 | 31525 ft | 455 kts | 81° |
| 2026-04-26 07:30 | 45.41224 | -71.17797 | 31719 ft | 456 kts | 81° |
| 2026-04-26 07:31 | 45.41688 | -71.13334 | 32008 ft | 455 kts | 81° |
| 2026-04-26 07:31 | 45.42145 | -71.08883 | 32265 ft | 454 kts | 81° |
| 2026-04-26 07:31 | 45.42665 | -71.04464 | 32490 ft | 453 kts | 75° |
| 2026-04-26 07:31 | 45.43594 | -71.00176 | 32650 ft | 453 kts | 68° |
| 2026-04-26 07:32 | 45.44759 | -70.96013 | 32870 ft | 452 kts | 64° |
| 2026-04-26 07:32 | 45.46072 | -70.91959 | 33121 ft | 450 kts | 62° |
| 2026-04-26 07:32 | 45.47455 | -70.87964 | 33343 ft | 450 kts | 62° |
| 2026-04-26 07:32 | 45.48835 | -70.83975 | 33562 ft | 449 kts | 62° |
| 2026-04-26 07:33 | 45.50172 | -70.79956 | 33795 ft | 448 kts | 63° |
| 2026-04-26 07:33 | 45.51491 | -70.75923 | 33963 ft | 449 kts | 63° |
| 2026-04-26 07:33 | 45.52812 | -70.71878 | 34071 ft | 451 kts | 63° |
| 2026-04-26 07:34 | 45.55476 | -70.63695 | 34131 ft | 458 kts | 63° |
| 2026-04-26 07:34 | 45.58179 | -70.55370 | 34142 ft | 466 kts | 63° |
| 2026-04-26 07:35 | 45.60914 | -70.46902 | 34148 ft | 473 kts | 63° |
| 2026-04-26 07:35 | 45.63692 | -70.38297 | 34141 ft | 480 kts | 63° |
| 2026-04-26 07:36 | 45.66499 | -70.29558 | 34153 ft | 487 kts | 63° |
| 2026-04-26 07:36 | 45.69334 | -70.20705 | 34148 ft | 492 kts | 63° |
| 2026-04-26 07:37 | 45.72190 | -70.11753 | 34141 ft | 497 kts | 63° |
| 2026-04-26 07:37 | 45.75058 | -70.02722 | 34138 ft | 500 kts | 63° |
| 2026-04-26 07:38 | 45.77937 | -69.93621 | 34134 ft | 503 kts | 63° |
| 2026-04-26 07:38 | 45.80833 | -69.84467 | 34143 ft | 506 kts | 63° |
| 2026-04-26 07:39 | 45.83718 | -69.75303 | 34135 ft | 503 kts | 63° |
| 2026-04-26 07:39 | 45.86576 | -69.66183 | 34130 ft | 500 kts | 63° |
| 2026-04-26 07:40 | 45.89413 | -69.57093 | 34131 ft | 498 kts | 63° |
| 2026-04-26 07:40 | 45.92231 | -69.48038 | 34137 ft | 496 kts | 63° |
| 2026-04-26 07:41 | 45.95017 | -69.39055 | 34144 ft | 495 kts | 63° |
| 2026-04-26 07:41 | 45.97806 | -69.30024 | 34144 ft | 494 kts | 63° |
| 2026-04-26 07:42 | 46.00586 | -69.20998 | 34149 ft | 493 kts | 63° |
| 2026-04-26 07:42 | 46.03355 | -69.11977 | 34154 ft | 493 kts | 63° |
| 2026-04-26 07:43 | 46.06113 | -69.02952 | 34173 ft | 492 kts | 63° |
| 2026-04-26 07:43 | 46.08865 | -68.93926 | 34163 ft | 493 kts | 63° |
| 2026-04-26 07:44 | 46.11620 | -68.84838 | 34170 ft | 497 kts | 63° |
| 2026-04-26 07:44 | 46.14397 | -68.75673 | 34160 ft | 500 kts | 63° |
| 2026-04-26 07:45 | 46.17177 | -68.66445 | 34155 ft | 503 kts | 63° |
| 2026-04-26 07:45 | 46.19959 | -68.57156 | 34175 ft | 506 kts | 63° |
| 2026-04-26 07:46 | 46.22760 | -68.47815 | 34160 ft | 508 kts | 62° |
| 2026-04-26 07:46 | 46.25559 | -68.38435 | 34187 ft | 509 kts | 63° |
| 2026-04-26 07:47 | 46.28348 | -68.29022 | 34176 ft | 510 kts | 62° |
| 2026-04-26 07:47 | 46.30996 | -68.19476 | 34169 ft | 513 kts | 65° |
| 2026-04-26 07:48 | 46.33500 | -68.09805 | 34173 ft | 514 kts | 64° |
| 2026-04-26 07:48 | 46.36083 | -68.00158 | 34158 ft | 514 kts | 64° |
| 2026-04-26 07:49 | 46.38664 | -67.90487 | 34129 ft | 515 kts | 64° |
| 2026-04-26 07:49 | 46.41242 | -67.80808 | 34127 ft | 515 kts | 64° |
| 2026-04-26 07:50 | 46.45080 | -67.66320 | 34139 ft | 516 kts | 64° |
| 2026-04-26 07:50 | 46.47630 | -67.56604 | 34126 ft | 515 kts | 64° |
| 2026-04-26 07:51 | 46.50170 | -67.46901 | 34122 ft | 514 kts | 64° |
| 2026-04-26 07:51 | 46.52706 | -67.37197 | 34126 ft | 514 kts | 64° |
| 2026-04-26 07:52 | 46.55229 | -67.27489 | 34132 ft | 514 kts | 64° |
| 2026-04-26 07:52 | 46.57743 | -67.17772 | 34140 ft | 513 kts | 65° |
| 2026-04-26 07:53 | 46.60244 | -67.08057 | 34140 ft | 513 kts | 65° |
| 2026-04-26 07:53 | 46.62737 | -66.98348 | 34133 ft | 512 kts | 65° |
| 2026-04-26 07:54 | 46.65223 | -66.88636 | 34136 ft | 512 kts | 65° |
| 2026-04-26 07:54 | 46.67694 | -66.78916 | 34151 ft | 512 kts | 65° |
| 2026-04-26 07:55 | 46.70150 | -66.69222 | 34138 ft | 509 kts | 66° |
| 2026-04-26 07:55 | 46.72583 | -66.59568 | 34146 ft | 506 kts | 66° |
| 2026-04-26 07:56 | 46.74590 | -66.51575 | 34138 ft | 505 kts | 66° |
| 2026-04-26 07:56 | 46.76999 | -66.41972 | 34132 ft | 503 kts | 66° |
| 2026-04-26 07:57 | 46.79391 | -66.32379 | 34132 ft | 503 kts | 66° |
| 2026-04-26 07:57 | 46.81769 | -66.22798 | 34144 ft | 501 kts | 66° |
| 2026-04-26 07:58 | 46.84126 | -66.13242 | 34137 ft | 499 kts | 66° |
| 2026-04-26 07:58 | 46.86478 | -66.03708 | 34140 ft | 499 kts | 66° |
| 2026-04-26 07:59 | 46.88813 | -65.94169 | 34136 ft | 498 kts | 66° |
| 2026-04-26 07:59 | 46.91145 | -65.84633 | 34130 ft | 498 kts | 66° |
| 2026-04-26 08:00 | 46.93463 | -65.75117 | 34146 ft | 495 kts | 67° |
| 2026-04-26 08:00 | 46.95751 | -65.65627 | 34137 ft | 494 kts | 67° |
| 2026-04-26 08:01 | 46.98034 | -65.56160 | 34131 ft | 493 kts | 67° |
| 2026-04-26 08:01 | 47.00304 | -65.46702 | 34137 ft | 491 kts | 67° |
| 2026-04-26 08:02 | 47.02899 | -65.37478 | 34127 ft | 488 kts | 63° |
| 2026-04-26 08:02 | 47.05640 | -65.28396 | 34133 ft | 486 kts | 65° |
| 2026-04-26 08:03 | 47.08260 | -65.19290 | 34122 ft | 483 kts | 65° |
| 2026-04-26 08:03 | 47.10864 | -65.10216 | 34123 ft | 482 kts | 65° |
| 2026-04-26 08:04 | 47.13458 | -65.01152 | 34114 ft | 481 kts | 65° |
| 2026-04-26 08:04 | 47.16037 | -64.92086 | 34129 ft | 481 kts | 65° |
| 2026-04-26 08:05 | 47.18581 | -64.83112 | 34126 ft | 477 kts | 65° |
| 2026-04-26 08:05 | 47.21122 | -64.74121 | 34119 ft | 475 kts | 65° |
| 2026-04-26 08:06 | 47.23645 | -64.65158 | 34119 ft | 474 kts | 66° |
| 2026-04-26 08:06 | 47.26155 | -64.56209 | 34118 ft | 473 kts | 66° |
| 2026-04-26 08:07 | 47.28654 | -64.47264 | 34119 ft | 472 kts | 66° |
| 2026-04-26 08:07 | 47.31138 | -64.38348 | 34115 ft | 469 kts | 66° |
| 2026-04-26 08:08 | 47.33603 | -64.29453 | 34107 ft | 468 kts | 66° |
| 2026-04-26 08:08 | 47.36059 | -64.20571 | 34111 ft | 468 kts | 66° |
| 2026-04-26 08:09 | 47.38511 | -64.11671 | 34097 ft | 468 kts | 66° |
| 2026-04-26 08:09 | 47.40953 | -64.02759 | 34114 ft | 468 kts | 66° |
| 2026-04-26 08:10 | 47.43382 | -63.93868 | 34104 ft | 466 kts | 66° |
| 2026-04-26 08:10 | 47.45795 | -63.85006 | 34099 ft | 465 kts | 66° |
| 2026-04-26 08:11 | 47.48199 | -63.76151 | 34089 ft | 464 kts | 66° |
| 2026-04-26 08:11 | 47.50588 | -63.67303 | 34092 ft | 463 kts | 66° |
| 2026-04-26 08:12 | 47.52971 | -63.58452 | 34108 ft | 462 kts | 66° |
| 2026-04-26 08:12 | 47.55322 | -63.49676 | 34094 ft | 456 kts | 66° |
| 2026-04-26 08:13 | 47.57643 | -63.40984 | 34089 ft | 452 kts | 66° |
| 2026-04-26 08:13 | 47.59930 | -63.32391 | 34089 ft | 450 kts | 66° |
| 2026-04-26 08:14 | 47.62219 | -63.23766 | 34089 ft | 449 kts | 66° |
| 2026-04-26 08:14 | 47.64504 | -63.15161 | 34085 ft | 448 kts | 66° |
| 2026-04-26 08:15 | 47.66828 | -63.06636 | 34091 ft | 443 kts | 66° |
| 2026-04-26 08:15 | 47.69151 | -62.98203 | 34107 ft | 440 kts | 65° |
| 2026-04-26 08:16 | 47.71463 | -62.89783 | 34081 ft | 440 kts | 65° |
| 2026-04-26 08:16 | 47.73765 | -62.81359 | 34079 ft | 440 kts | 65° |
| 2026-04-26 08:17 | 47.76059 | -62.72940 | 34073 ft | 439 kts | 65° |
| 2026-04-26 08:17 | 47.78345 | -62.64516 | 34074 ft | 439 kts | 65° |
| 2026-04-26 08:18 | 47.80625 | -62.56089 | 34071 ft | 439 kts | 65° |
| 2026-04-26 08:18 | 47.82898 | -62.47661 | 34072 ft | 439 kts | 66° |
| 2026-04-26 08:19 | 47.85164 | -62.39223 | 34064 ft | 439 kts | 66° |
| 2026-04-26 08:19 | 47.87423 | -62.30779 | 34084 ft | 440 kts | 65° |
| 2026-04-26 08:20 | 47.89687 | -62.22307 | 34072 ft | 440 kts | 66° |
| 2026-04-26 08:20 | 47.91938 | -62.13820 | 34065 ft | 440 kts | 66° |
| 2026-04-26 08:21 | 47.94189 | -62.05337 | 34058 ft | 440 kts | 66° |
| 2026-04-26 08:21 | 47.96425 | -61.96848 | 34058 ft | 440 kts | 66° |
| 2026-04-26 08:22 | 47.98658 | -61.88349 | 34048 ft | 440 kts | 66° |
| 2026-04-26 08:22 | 48.00883 | -61.79847 | 34058 ft | 440 kts | 66° |
| 2026-04-26 08:23 | 48.03102 | -61.71348 | 34051 ft | 439 kts | 66° |
| 2026-04-26 08:23 | 48.05295 | -61.62906 | 34051 ft | 439 kts | 66° |
| 2026-04-26 08:24 | 48.07505 | -61.54381 | 34040 ft | 440 kts | 66° |
| 2026-04-26 08:24 | 48.09706 | -61.45837 | 34032 ft | 441 kts | 66° |
| 2026-04-26 08:25 | 48.11910 | -61.37271 | 34025 ft | 441 kts | 66° |
| 2026-04-26 08:25 | 48.14106 | -61.28708 | 34028 ft | 440 kts | 66° |
| 2026-04-26 08:26 | 48.16380 | -61.20209 | 34024 ft | 439 kts | 64° |
| 2026-04-26 08:26 | 48.18849 | -61.11861 | 34012 ft | 438 kts | 64° |
| 2026-04-26 08:27 | 48.21260 | -61.03488 | 34012 ft | 438 kts | 64° |
| 2026-04-26 08:27 | 48.23676 | -60.95105 | 34037 ft | 438 kts | 64° |
| 2026-04-26 08:28 | 48.26097 | -60.86702 | 34024 ft | 439 kts | 64° |
| 2026-04-26 08:28 | 48.28508 | -60.78267 | 34004 ft | 440 kts | 64° |
| 2026-04-26 08:29 | 48.30916 | -60.69835 | 34002 ft | 440 kts | 64° |
| 2026-04-26 08:29 | 48.33321 | -60.61385 | 33999 ft | 440 kts | 64° |
| 2026-04-26 08:30 | 48.35717 | -60.52928 | 33992 ft | 440 kts | 64° |
| 2026-04-26 08:30 | 48.38114 | -60.44448 | 33786 ft | 443 kts | 64° |
| 2026-04-26 08:31 | 48.39320 | -60.40174 | 33642 ft | 443 kts | 64° |
| 2026-04-26 08:31 | 48.40519 | -60.35903 | 33583 ft | 443 kts | 64° |
| 2026-04-26 08:31 | 48.41717 | -60.31628 | 33398 ft | 444 kts | 64° |
| 2026-04-26 08:31 | 48.42923 | -60.27328 | 33123 ft | 447 kts | 64° |
| 2026-04-26 08:32 | 48.44126 | -60.23016 | 32936 ft | 449 kts | 64° |
| 2026-04-26 08:32 | 48.45337 | -60.18687 | 32834 ft | 448 kts | 64° |
| 2026-04-26 08:32 | 48.47740 | -60.10047 | 32767 ft | 445 kts | 64° |
| 2026-04-26 08:33 | 48.50124 | -60.01465 | 32770 ft | 442 kts | 64° |
| 2026-04-26 08:33 | 48.52464 | -59.92988 | 32756 ft | 440 kts | 64° |
| 2026-04-26 08:34 | 48.54807 | -59.84485 | 32757 ft | 438 kts | 64° |
| 2026-04-26 08:34 | 48.57137 | -59.75988 | 32755 ft | 438 kts | 64° |
| 2026-04-26 08:35 | 48.59461 | -59.67495 | 32757 ft | 437 kts | 64° |
| 2026-04-26 08:35 | 48.61775 | -59.58996 | 32749 ft | 437 kts | 64° |
| 2026-04-26 08:36 | 48.64098 | -59.50437 | 32787 ft | 437 kts | 64° |
| 2026-04-26 08:36 | 48.66408 | -59.41905 | 32749 ft | 439 kts | 64° |
| 2026-04-26 08:37 | 48.68701 | -59.33397 | 32734 ft | 440 kts | 64° |
| 2026-04-26 08:37 | 48.71008 | -59.24807 | 32735 ft | 441 kts | 64° |
| 2026-04-26 08:38 | 48.73308 | -59.16202 | 32735 ft | 441 kts | 64° |
| 2026-04-26 08:38 | 48.75608 | -59.07588 | 32734 ft | 441 kts | 64° |
| 2026-04-26 08:39 | 48.77893 | -58.98972 | 32718 ft | 440 kts | 65° |
| 2026-04-26 08:39 | 48.80172 | -58.90353 | 32717 ft | 440 kts | 65° |
| 2026-04-26 08:40 | 48.82453 | -58.81707 | 32591 ft | 442 kts | 65° |
| 2026-04-26 08:40 | 48.84723 | -58.73048 | 32623 ft | 442 kts | 64° |
| 2026-04-26 08:41 | 48.85875 | -58.68690 | 32201 ft | 450 kts | 64° |
| 2026-04-26 08:41 | 48.87045 | -58.64222 | 31582 ft | 460 kts | 65° |
| 2026-04-26 08:41 | 48.88225 | -58.59674 | 30964 ft | 465 kts | 65° |
| 2026-04-26 08:41 | 48.89414 | -58.55091 | 30361 ft | 467 kts | 64° |
| 2026-04-26 08:42 | 48.90604 | -58.50501 | 29726 ft | 467 kts | 64° |
| 2026-04-26 08:42 | 48.91797 | -58.45908 | 29005 ft | 467 kts | 64° |
| 2026-04-26 08:42 | 48.92989 | -58.41301 | 28315 ft | 469 kts | 64° |
| 2026-04-26 08:42 | 48.94182 | -58.36672 | 27637 ft | 472 kts | 64° |
| 2026-04-26 08:43 | 48.94979 | -58.33589 | 27201 ft | 473 kts | 64° |
| 2026-04-26 08:43 | 48.96196 | -58.28857 | 26496 ft | 475 kts | 64° |
| 2026-04-26 08:43 | 48.97396 | -58.24184 | 25511 ft | 484 kts | 64° |
| 2026-04-26 08:43 | 48.98682 | -58.19419 | 24556 ft | 487 kts | 60° |
| 2026-04-26 08:44 | 49.00634 | -58.15157 | 23610 ft | 485 kts | 44° |
| 2026-04-26 08:44 | 49.03241 | -58.12024 | 22582 ft | 486 kts | 29° |
| 2026-04-26 08:44 | 49.06375 | -58.10088 | 21543 ft | 489 kts | 14° |
| 2026-04-26 08:44 | 49.09810 | -58.09550 | 20521 ft | 495 kts | 360° |
| 2026-04-26 08:45 | 49.13167 | -58.10456 | 19576 ft | 502 kts | 345° |
| 2026-04-26 08:45 | 49.16340 | -58.12761 | 18643 ft | 512 kts | 330° |
| 2026-04-26 08:45 | 49.19060 | -58.16333 | 17667 ft | 522 kts | 316° |
| 2026-04-26 08:45 | 49.21134 | -58.20945 | 16648 ft | 533 kts | 302° |
| 2026-04-26 08:46 | 49.22411 | -58.26312 | 15637 ft | 545 kts | 288° |
| 2026-04-26 08:46 | 49.22814 | -58.32119 | 14629 ft | 555 kts | 274° |
| 2026-04-26 08:46 | 49.22308 | -58.38016 | 13670 ft | 565 kts | 259° |
| 2026-04-26 08:46 | 49.20894 | -58.43652 | 12628 ft | 572 kts | 246° |
| 2026-04-26 08:47 | 49.18924 | -58.48943 | 11619 ft | 573 kts | 243° |
| 2026-04-26 08:47 | 49.16786 | -58.54080 | 10635 ft | 575 kts | 236° |
| 2026-04-26 08:47 | 49.13974 | -58.58455 | 9648 ft | 581 kts | 220° |
| 2026-04-26 08:47 | 49.10522 | -58.61709 | 8602 ft | 586 kts | 206° |
| 2026-04-26 08:48 | 49.06663 | -58.63713 | 7583 ft | 588 kts | 193° |
| 2026-04-26 08:48 | 49.02627 | -58.64301 | 6945 ft | 553 kts | 174° |
| 2026-04-26 08:48 | 48.99471 | -58.63166 | 9666 ft | 461 kts | 165° |
| 2026-04-26 08:48 | 48.96385 | -58.61576 | 9966 ft | 465 kts | 151° |
| 2026-04-26 08:49 | 48.93764 | -58.58843 | 10975 ft | 454 kts | 134° |
| 2026-04-26 08:49 | 48.91678 | -58.55202 | 10628 ft | 471 kts | 118° |
| 2026-04-26 08:49 | 48.90292 | -58.50613 | 10123 ft | 487 kts | 102° |
| 2026-04-26 08:49 | 48.89797 | -58.45531 | 9879 ft | 492 kts | 86° |
| 2026-04-26 08:50 | 48.90184 | -58.40768 | 9769 ft | 425 kts | 70° |
| 2026-04-26 08:50 | 48.91326 | -58.36997 | 9681 ft | 353 kts | 50° |
| 2026-04-26 08:50 | 48.92748 | -58.34383 | 9547 ft | 303 kts | 43° |
| 2026-04-26 08:50 | 48.94069 | -58.32154 | 9317 ft | 262 kts | 41° |
| 2026-04-26 08:51 | 48.96261 | -58.28586 | 8554 ft | 213 kts | 39° |
| 2026-04-26 08:51 | 48.97234 | -58.27078 | 7934 ft | 187 kts | 39° |
| 2026-04-26 08:51 | 48.98104 | -58.25734 | 7276 ft | 172 kts | 39° |
| 2026-04-26 08:52 | 48.98926 | -58.24471 | 6637 ft | 164 kts | 39° |
| 2026-04-26 08:52 | 48.99720 | -58.23258 | 6024 ft | 158 kts | 39° |
| 2026-04-26 08:52 | 49.00445 | -58.22148 | 5779 ft | 135 kts | 39° |
| 2026-04-26 08:52 | 49.01060 | -58.21199 | 5610 ft | 118 kts | 39° |
| 2026-04-26 08:53 | 49.01631 | -58.20326 | 5275 ft | 115 kts | 38° |
| 2026-04-26 08:53 | 49.02193 | -58.19464 | 4831 ft | 114 kts | 39° |
| 2026-04-26 08:53 | 49.02745 | -58.18610 | 4346 ft | 113 kts | 40° |
| 2026-04-26 08:53 | 49.03288 | -58.17758 | 3939 ft | 112 kts | 39° |
| 2026-04-26 08:54 | 49.03835 | -58.16890 | 3503 ft | 122 kts | 38° |
| 2026-04-26 08:54 | 49.04447 | -58.15950 | 3503 ft | 122 kts | 38° |
| 2026-04-26 08:54 | 49.05036 | -58.15056 | 3597 ft | 117 kts | 38° |
| 2026-04-26 08:54 | 49.05618 | -58.14180 | 3579 ft | 118 kts | 38° |
| 2026-04-26 08:55 | 49.06234 | -58.13261 | 3599 ft | 134 kts | 38° |
| 2026-04-26 08:55 | 49.06950 | -58.12199 | 3641 ft | 153 kts | 39° |
| 2026-04-26 08:55 | 49.07564 | -58.10743 | 3596 ft | 177 kts | 62° |
| 2026-04-26 08:55 | 49.07895 | -58.08910 | 3720 ft | 183 kts | 68° |
| 2026-04-26 08:56 | 49.08179 | -58.06985 | 3715 ft | 191 kts | 70° |
| 2026-04-26 08:56 | 49.08473 | -58.04980 | 3692 ft | 195 kts | 69° |
| 2026-04-26 08:56 | 49.08726 | -58.02956 | 3799 ft | 197 kts | 73° |
| 2026-04-26 08:56 | 49.08831 | -58.00848 | 3823 ft | 201 kts | 82° |
| 2026-04-26 08:57 | 49.08792 | -57.98729 | 3865 ft | 201 kts | 84° |
| 2026-04-26 08:57 | 49.08653 | -57.96603 | 3832 ft | 208 kts | 92° |
| 2026-04-26 08:57 | 49.08327 | -57.94371 | 3742 ft | 217 kts | 95° |
| 2026-04-26 08:57 | 49.07960 | -57.92118 | 3483 ft | 227 kts | 96° |
| 2026-04-26 08:58 | 49.07595 | -57.89830 | 3469 ft | 208 kts | 97° |
| 2026-04-26 08:58 | 49.07219 | -57.87720 | 3616 ft | 205 kts | 97° |
| 2026-04-26 08:58 | 49.06833 | -57.85629 | 3613 ft | 209 kts | 97° |
| 2026-04-26 08:58 | 49.06502 | -57.83506 | 3479 ft | 207 kts | 95° |
| 2026-04-26 08:59 | 49.06198 | -57.81411 | 3507 ft | 198 kts | 95° |
| 2026-04-26 08:59 | 49.05913 | -57.79390 | 3467 ft | 198 kts | 93° |
| 2026-04-26 08:59 | 49.05691 | -57.77336 | 3402 ft | 190 kts | 90° |
| 2026-04-26 08:59 | 49.05560 | -57.75387 | 3438 ft | 181 kts | 86° |
| 2026-04-26 09:00 | 49.05514 | -57.73466 | 3381 ft | 180 kts | 82° |
| 2026-04-26 09:00 | 49.05657 | -57.71561 | 3414 ft | 183 kts | 74° |
| 2026-04-26 09:00 | 49.05885 | -57.69656 | 3458 ft | 181 kts | 70° |
| 2026-04-26 09:00 | 49.06219 | -57.67810 | 3386 ft | 182 kts | 65° |
| 2026-04-26 09:01 | 49.06644 | -57.65975 | 3265 ft | 185 kts | 63° |
| 2026-04-26 09:01 | 49.07138 | -57.64170 | 3176 ft | 181 kts | 57° |
| 2026-04-26 09:01 | 49.07659 | -57.62497 | 2940 ft | 170 kts | 59° |
| 2026-04-26 09:01 | 49.08126 | -57.60894 | 2558 ft | 164 kts | 59° |
| 2026-04-26 09:02 | 49.08586 | -57.59345 | 2270 ft | 159 kts | 58° |
| 2026-04-26 09:02 | 49.09120 | -57.57783 | 2155 ft | 171 kts | 55° |
| 2026-04-26 09:02 | 49.09740 | -57.56166 | 1959 ft | 184 kts | 53° |
| 2026-04-26 09:02 | 49.10572 | -57.54700 | 1816 ft | 185 kts | 36° |
| 2026-04-26 09:03 | 49.11607 | -57.53446 | 1519 ft | 196 kts | 36° |
| 2026-04-26 09:03 | 49.12697 | -57.52164 | 1254 ft | 195 kts | 34° |
| 2026-04-26 09:03 | 49.13653 | -57.51021 | 1111 ft | 154 kts | 38° |
| 2026-04-26 09:03 | 49.14332 | -57.49928 | 825 ft | 132 kts | 46° |
| 2026-04-26 09:04 | 49.14938 | -57.48869 | 626 ft | 135 kts | 45° |
| 2026-04-26 09:04 | 49.15596 | -57.47781 | 643 ft | 145 kts | 44° |
| 2026-04-26 09:04 | 49.16240 | -57.46792 | 556 ft | 127 kts | 43° |
| 2026-04-26 09:04 | 49.16948 | -57.45731 | 581 ft | 146 kts | 42° |
| 2026-04-26 09:05 | 49.17643 | -57.44661 | 581 ft | 137 kts | 45° |
| 2026-04-26 09:05 | 49.18283 | -57.43624 | 431 ft | 139 kts | 44° |
| 2026-04-26 09:05 | 49.18935 | -57.42581 | 354 ft | 128 kts | 43° |
| 2026-04-26 09:05 | 49.19564 | -57.41589 | 217 ft | 132 kts | 42° |
| 2026-04-26 09:06 | 49.20163 | -57.40639 | 78 ft | 127 kts | 44° |
| 2026-04-26 09:06 | 49.20609 | -57.39937 | 51 ft | 25 kts | 48° |
| 2026-04-26 09:06 | 49.20658 | -57.39852 | 51 ft | 14 kts | 46° |
| 2026-04-26 09:06 | 49.18044 | -57.44008 | 479 ft | 134 kts | 44° |
| 2026-04-26 09:07 | 49.19983 | -57.40924 | 85 ft | 121 kts | 43° |
| 2026-04-26 09:07 | 49.20522 | -57.40075 | 53 ft | 80 kts | 45° |
| 2026-04-26 09:07 | 49.20493 | -57.40119 | 49 ft | 91 kts | 45° |
| 2026-04-26 09:07 | 49.20419 | -57.40236 | 52 ft | 99 kts | 46° |
| 2026-04-26 09:08 | 49.20293 | -57.40433 | 60 ft | 121 kts | 44° |
| 2026-04-26 09:08 | 49.20207 | -57.40569 | 70 ft | 126 kts | 43° |
| 2026-04-26 09:09 | 49.20163 | -57.40639 | 78 ft | 103 kts | 44° |
| 2026-04-26 09:09 | 49.20419 | -57.40236 | 52 ft | 95 kts | 46° |
| 2026-04-26 09:09 | 49.20337 | -57.40364 | 60 ft | 112 kts | 44° |
| 2026-04-26 09:09 | 49.19768 | -57.41272 | 160 ft | 122 kts | 43° |
| 2026-04-26 09:10 | 49.19246 | -57.42086 | 254 ft | 115 kts | 43° |
| 2026-04-26 09:10 | 49.19825 | -57.41179 | 140 ft | 121 kts | 43° |
| 2026-04-26 09:10 | 49.20438 | -57.40205 | 49 ft | 107 kts | 46° |
| 2026-04-26 09:10 | 49.20620 | -57.39918 | 51 ft | 3 kts | 48° |
| 2026-04-26 09:11 | 49.20672 | -57.39830 | 51 ft | 12 kts | 46° |
| 2026-04-26 09:11 | 49.20725 | -57.39751 | 49 ft | 0 kts | 26° |
| 2026-04-26 09:11 | 49.20726 | -57.39750 | 50 ft | 0 kts | 18° |
| 2026-04-26 09:11 | 49.20744 | -57.39750 | 33 ft | 7 kts | 348° |
| 2026-04-26 09:12 | 49.20774 | -57.39780 | 53 ft | 12 kts | 316° |
| 2026-04-26 09:12 | 49.20839 | -57.39867 | 53 ft | 10 kts | 335° |
| 2026-04-26 09:12 | 49.20857 | -57.39872 | 51 ft | 4 kts | 359° |
| 2026-04-26 09:12 | 49.20882 | -57.39874 | 50 ft | 2 kts | 342° |
| 2026-04-26 09:13 | 49.20904 | -57.39894 | 53 ft | 4 kts | 318° |
| 2026-04-26 09:13 | 49.20926 | -57.39925 | 53 ft | 0 kts | 317° |